sensor_id;sensor_type;location;lat;lon;timestamp;pressure;altitude;pressure_sealevel;temperature;humidity
36062;BME280;22123;52.412;20.970;2023-12-07T00:01:20;101113.97;;;-2.26;100.00
36062;BME280;22123;52.412;20.970;2023-12-07T00:03:45;101093.34;;;-2.35;100.00
36062;BME280;22123;52.412;20.970;2023-12-07T00:06:11;101104.53;;;-2.30;100.00
36062;BME280;22123;52.412;20.970;2023-12-07T00:08:37;101073.84;;;-2.50;100.00
36062;BME280;22123;52.412;20.970;2023-12-07T00:11:03;101092.63;;;-2.39;100.00
36062;BME280;22123;52.412;20.970;2023-12-07T00:13:29;101109.56;;;-2.25;100.00
36062;BME280;22123;52.412;20.970;2023-12-07T00:15:55;101094.31;;;-2.38;100.00
36062;BME280;22123;52.412;20.970;2023-12-07T00:18:21;101120.66;;;-2.19;100.00
36062;BME280;22123;52.412;20.970;2023-12-07T00:20:47;101097.53;;;-2.31;100.00
36062;BME280;22123;52.412;20.970;2023-12-07T00:23:12;101084.00;;;-2.42;100.00
36062;BME280;22123;52.412;20.970;2023-12-07T00:25:38;101086.66;;;-2.42;100.00
36062;BME280;22123;52.412;20.970;2023-12-07T00:28:04;101115.09;;;-2.30;100.00
36062;BME280;22123;52.412;20.970;2023-12-07T00:30:30;101141.34;;;-2.10;100.00
36062;BME280;22123;52.412;20.970;2023-12-07T00:32:56;101103.66;;;-2.31;100.00
36062;BME280;22123;52.412;20.970;2023-12-07T00:35:22;101113.84;;;-2.23;100.00
36062;BME280;22123;52.412;20.970;2023-12-07T00:37:48;101096.69;;;-2.32;100.00
36062;BME280;22123;52.412;20.970;2023-12-07T00:40:14;101040.34;;;-2.67;100.00
36062;BME280;22123;52.412;20.970;2023-12-07T00:42:40;101111.41;;;-2.28;100.00
36062;BME280;22123;52.412;20.970;2023-12-07T00:45:06;101122.38;;;-2.18;100.00
36062;BME280;22123;52.412;20.970;2023-12-07T00:47:32;101121.13;;;-2.28;100.00
36062;BME280;22123;52.412;20.970;2023-12-07T00:49:58;101120.81;;;-2.22;100.00
36062;BME280;22123;52.412;20.970;2023-12-07T00:52:24;101087.41;;;-2.40;100.00
36062;BME280;22123;52.412;20.970;2023-12-07T00:54:49;101065.06;;;-2.51;100.00
36062;BME280;22123;52.412;20.970;2023-12-07T00:57:15;101106.38;;;-2.32;100.00
36062;BME280;22123;52.412;20.970;2023-12-07T00:59:41;101115.69;;;-2.25;100.00
36062;BME280;22123;52.412;20.970;2023-12-07T01:02:07;101115.53;;;-2.22;100.00
36062;BME280;22123;52.412;20.970;2023-12-07T01:04:33;101135.16;;;-2.08;100.00
36062;BME280;22123;52.412;20.970;2023-12-07T01:06:59;101137.84;;;-2.10;100.00
36062;BME280;22123;52.412;20.970;2023-12-07T01:09:25;101107.94;;;-2.28;100.00
36062;BME280;22123;52.412;20.970;2023-12-07T01:11:52;101092.56;;;-2.37;100.00
36062;BME280;22123;52.412;20.970;2023-12-07T01:14:18;101135.91;;;-2.06;100.00
36062;BME280;22123;52.412;20.970;2023-12-07T01:16:44;101130.00;;;-2.12;100.00
36062;BME280;22123;52.412;20.970;2023-12-07T01:19:11;101141.13;;;-2.05;100.00
36062;BME280;22123;52.412;20.970;2023-12-07T01:21:37;101103.56;;;-2.29;100.00
36062;BME280;22123;52.412;20.970;2023-12-07T01:24:02;101077.09;;;-2.45;100.00
36062;BME280;22123;52.412;20.970;2023-12-07T01:26:28;101135.19;;;-2.10;100.00
36062;BME280;22123;52.412;20.970;2023-12-07T01:28:54;101125.09;;;-2.19;100.00
36062;BME280;22123;52.412;20.970;2023-12-07T01:31:20;101124.09;;;-2.17;100.00
36062;BME280;22123;52.412;20.970;2023-12-07T01:33:46;101148.13;;;-2.04;100.00
36062;BME280;22123;52.412;20.970;2023-12-07T01:36:12;101136.91;;;-2.09;100.00
36062;BME280;22123;52.412;20.970;2023-12-07T01:38:38;101106.94;;;-2.25;100.00
36062;BME280;22123;52.412;20.970;2023-12-07T01:41:04;101145.25;;;-1.99;100.00
36062;BME280;22123;52.412;20.970;2023-12-07T01:43:29;101101.50;;;-2.22;100.00
36062;BME280;22123;52.412;20.970;2023-12-07T01:45:57;101117.59;;;-2.10;100.00
36062;BME280;22123;52.412;20.970;2023-12-07T01:48:24;101122.09;;;-2.12;100.00
36062;BME280;22123;52.412;20.970;2023-12-07T01:50:51;101088.41;;;-2.24;100.00
36062;BME280;22123;52.412;20.970;2023-12-07T01:53:17;101100.50;;;-2.20;100.00
36062;BME280;22123;52.412;20.970;2023-12-07T01:55:43;101122.66;;;-2.05;100.00
36062;BME280;22123;52.412;20.970;2023-12-07T01:58:09;101065.97;;;-2.33;100.00
36062;BME280;22123;52.412;20.970;2023-12-07T02:00:35;101115.66;;;-2.06;100.00
36062;BME280;22123;52.412;20.970;2023-12-07T02:03:05;101091.56;;;-2.17;100.00
36062;BME280;22123;52.412;20.970;2023-12-07T02:05:31;101130.09;;;-1.96;100.00
36062;BME280;22123;52.412;20.970;2023-12-07T02:07:58;101123.81;;;-1.93;100.00
36062;BME280;22123;52.412;20.970;2023-12-07T02:10:24;101098.06;;;-2.05;100.00
36062;BME280;22123;52.412;20.970;2023-12-07T02:12:51;101123.06;;;-1.95;100.00
36062;BME280;22123;52.412;20.970;2023-12-07T02:15:18;101063.16;;;-2.30;100.00
36062;BME280;22123;52.412;20.970;2023-12-07T02:18:03;101123.91;;;-1.95;100.00
36062;BME280;22123;52.412;20.970;2023-12-07T02:21:11;101081.03;;;-2.17;100.00
36062;BME280;22123;52.412;20.970;2023-12-07T02:23:41;101121.25;;;-1.95;100.00
36062;BME280;22123;52.412;20.970;2023-12-07T02:29:11;101125.69;;;-1.95;100.00
36062;BME280;22123;52.412;20.970;2023-12-07T02:31:36;101129.19;;;-1.95;100.00
36062;BME280;22123;52.412;20.970;2023-12-07T02:34:02;101106.13;;;-2.08;100.00
36062;BME280;22123;52.412;20.970;2023-12-07T02:36:29;101103.50;;;-2.08;100.00
36062;BME280;22123;52.412;20.970;2023-12-07T02:38:57;101121.50;;;-1.99;100.00
36062;BME280;22123;52.412;20.970;2023-12-07T02:41:24;101108.97;;;-2.13;100.00
36062;BME280;22123;52.412;20.970;2023-12-07T02:43:51;101121.56;;;-2.01;100.00
36062;BME280;22123;52.412;20.970;2023-12-07T02:46:17;101107.91;;;-2.09;100.00
36062;BME280;22123;52.412;20.970;2023-12-07T02:48:43;101068.59;;;-2.33;100.00
36062;BME280;22123;52.412;20.970;2023-12-07T02:51:09;101121.81;;;-2.05;100.00
36062;BME280;22123;52.412;20.970;2023-12-07T02:53:35;101134.38;;;-1.93;100.00
36062;BME280;22123;52.412;20.970;2023-12-07T02:56:01;101136.19;;;-1.94;100.00
36062;BME280;22123;52.412;20.970;2023-12-07T02:58:26;101081.41;;;-2.25;100.00
36062;BME280;22123;52.412;20.970;2023-12-07T03:00:52;101132.66;;;-1.94;100.00
36062;BME280;22123;52.412;20.970;2023-12-07T03:03:18;101106.41;;;-2.15;100.00
36062;BME280;22123;52.412;20.970;2023-12-07T03:05:44;101065.16;;;-2.35;100.00
36062;BME280;22123;52.412;20.970;2023-12-07T03:08:10;101134.31;;;-1.92;100.00
36062;BME280;22123;52.412;20.970;2023-12-07T03:10:36;101113.16;;;-2.09;100.00
36062;BME280;22123;52.412;20.970;2023-12-07T03:13:02;101100.13;;;-2.12;100.00
36062;BME280;22123;52.412;20.970;2023-12-07T03:15:27;101091.53;;;-2.16;100.00
36062;BME280;22123;52.412;20.970;2023-12-07T03:17:53;101071.25;;;-2.33;100.00
36062;BME280;22123;52.412;20.970;2023-12-07T03:20:19;101086.59;;;-2.23;100.00
36062;BME280;22123;52.412;20.970;2023-12-07T03:22:47;101085.75;;;-2.24;100.00
36062;BME280;22123;52.412;20.970;2023-12-07T03:25:13;101127.63;;;-1.99;100.00
36062;BME280;22123;52.412;20.970;2023-12-07T03:27:39;101087.47;;;-2.23;100.00
36062;BME280;22123;52.412;20.970;2023-12-07T03:30:05;101060.75;;;-2.34;100.00
36062;BME280;22123;52.412;20.970;2023-12-07T03:32:31;101089.25;;;-2.23;100.00
36062;BME280;22123;52.412;20.970;2023-12-07T03:34:57;101134.38;;;-1.93;100.00
36062;BME280;22123;52.412;20.970;2023-12-07T03:37:23;101130.19;;;-1.97;100.00
36062;BME280;22123;52.412;20.970;2023-12-07T03:39:49;101125.66;;;-2.13;100.00
36062;BME280;22123;52.412;20.970;2023-12-07T03:42:15;101143.44;;;-1.99;100.00
36062;BME280;22123;52.412;20.970;2023-12-07T03:44:41;101146.97;;;-1.98;100.00
36062;BME280;22123;52.412;20.970;2023-12-07T03:47:07;101101.59;;;-2.24;100.00
36062;BME280;22123;52.412;20.970;2023-12-07T03:49:33;101077.28;;;-2.31;100.00
36062;BME280;22123;52.412;20.970;2023-12-07T03:51:59;101103.06;;;-2.18;100.00
36062;BME280;22123;52.412;20.970;2023-12-07T03:54:25;101140.59;;;-1.94;100.00
36062;BME280;22123;52.412;20.970;2023-12-07T03:56:51;101083.63;;;-2.35;100.00
36062;BME280;22123;52.412;20.970;2023-12-07T03:59:17;101104.91;;;-2.20;100.00
36062;BME280;22123;52.412;20.970;2023-12-07T04:01:42;101083.28;;;-2.27;100.00
36062;BME280;22123;52.412;20.970;2023-12-07T04:04:08;101136.56;;;-2.01;100.00
36062;BME280;22123;52.412;20.970;2023-12-07T04:06:34;101105.63;;;-2.17;100.00
36062;BME280;22123;52.412;20.970;2023-12-07T04:09:00;101114.25;;;-2.13;100.00
36062;BME280;22123;52.412;20.970;2023-12-07T04:11:26;101108.88;;;-2.12;100.00
36062;BME280;22123;52.412;20.970;2023-12-07T04:13:52;101098.66;;;-2.18;100.00
36062;BME280;22123;52.412;20.970;2023-12-07T04:16:18;101131.91;;;-1.96;100.00
36062;BME280;22123;52.412;20.970;2023-12-07T04:18:43;101090.72;;;-2.18;100.00
36062;BME280;22123;52.412;20.970;2023-12-07T04:21:09;101116.38;;;-2.02;100.00
36062;BME280;22123;52.412;20.970;2023-12-07T04:23:35;101109.47;;;-2.05;100.00
36062;BME280;22123;52.412;20.970;2023-12-07T04:26:01;101095.84;;;-2.15;100.00
36062;BME280;22123;52.412;20.970;2023-12-07T04:28:27;101086.28;;;-2.17;100.00
36062;BME280;22123;52.412;20.970;2023-12-07T04:30:53;101144.59;;;-1.85;100.00
36062;BME280;22123;52.412;20.970;2023-12-07T04:33:19;101106.97;;;-2.08;100.00
36062;BME280;22123;52.412;20.970;2023-12-07T04:35:45;101107.66;;;-2.04;100.00
36062;BME280;22123;52.412;20.970;2023-12-07T04:38:11;101083.75;;;-2.19;100.00
36062;BME280;22123;52.412;20.970;2023-12-07T04:40:36;101131.66;;;-1.92;100.00
36062;BME280;22123;52.412;20.970;2023-12-07T04:43:02;101145.44;;;-1.85;100.00
36062;BME280;22123;52.412;20.970;2023-12-07T04:45:28;101119.47;;;-1.94;100.00
36062;BME280;22123;52.412;20.970;2023-12-07T04:47:54;101097.25;;;-2.07;100.00
36062;BME280;22123;52.412;20.970;2023-12-07T04:50:20;101121.03;;;-1.90;100.00
36062;BME280;22123;52.412;20.970;2023-12-07T04:52:46;101093.84;;;-2.10;100.00
36062;BME280;22123;52.412;20.970;2023-12-07T04:55:12;101147.84;;;-1.80;100.00
36062;BME280;22123;52.412;20.970;2023-12-07T04:57:38;101105.03;;;-2.04;100.00
36062;BME280;22123;52.412;20.970;2023-12-07T05:00:04;101149.56;;;-1.79;100.00
36062;BME280;22123;52.412;20.970;2023-12-07T05:02:30;101127.47;;;-1.96;100.00
36062;BME280;22123;52.412;20.970;2023-12-07T05:04:56;101140.31;;;-1.88;100.00
36062;BME280;22123;52.412;20.970;2023-12-07T05:07:22;101112.25;;;-2.08;100.00
36062;BME280;22123;52.412;20.970;2023-12-07T05:09:47;101143.09;;;-1.91;100.00
36062;BME280;22123;52.412;20.970;2023-12-07T05:12:13;101101.69;;;-2.08;100.00
36062;BME280;22123;52.412;20.970;2023-12-07T05:14:39;101127.47;;;-1.96;100.00
36062;BME280;22123;52.412;20.970;2023-12-07T05:17:05;101120.50;;;-1.97;100.00
36062;BME280;22123;52.412;20.970;2023-12-07T05:19:31;101146.44;;;-1.87;100.00
36062;BME280;22123;52.412;20.970;2023-12-07T05:21:57;101154.91;;;-1.81;100.00
36062;BME280;22123;52.412;20.970;2023-12-07T05:24:23;101116.59;;;-2.07;100.00
36062;BME280;22123;52.412;20.970;2023-12-07T05:26:49;101105.19;;;-2.07;100.00
36062;BME280;22123;52.412;20.970;2023-12-07T05:29:15;101124.22;;;-2.01;100.00
36062;BME280;22123;52.412;20.970;2023-12-07T05:31:41;101164.66;;;-1.83;100.00
36062;BME280;22123;52.412;20.970;2023-12-07T05:34:07;101120.94;;;-2.06;100.00
36062;BME280;22123;52.412;20.970;2023-12-07T05:36:33;101148.06;;;-1.85;100.00
36062;BME280;22123;52.412;20.970;2023-12-07T05:38:59;101109.59;;;-2.08;100.00
36062;BME280;22123;52.412;20.970;2023-12-07T05:41:25;101102.94;;;-2.15;100.00
36062;BME280;22123;52.412;20.970;2023-12-07T05:43:52;101129.34;;;-1.98;100.00
36062;BME280;22123;52.412;20.970;2023-12-07T05:46:19;101108.78;;;-2.08;100.00
36062;BME280;22123;52.412;20.970;2023-12-07T05:48:45;101118.22;;;-2.04;100.00
36062;BME280;22123;52.412;20.970;2023-12-07T05:51:15;101167.72;;;-1.73;100.00
36062;BME280;22123;52.412;20.970;2023-12-07T05:53:42;101162.38;;;-1.71;100.00
36062;BME280;22123;52.412;20.970;2023-12-07T05:56:08;101130.19;;;-1.97;100.00
36062;BME280;22123;52.412;20.970;2023-12-07T05:58:34;101113.25;;;-2.11;100.00
36062;BME280;22123;52.412;20.970;2023-12-07T06:01:00;101124.22;;;-2.01;100.00
36062;BME280;22123;52.412;20.970;2023-12-07T06:03:27;101114.88;;;-2.08;100.00
36062;BME280;22123;52.412;20.970;2023-12-07T06:05:52;101110.69;;;-2.12;100.00
36062;BME280;22123;52.412;20.970;2023-12-07T06:08:18;101141.53;;;-1.95;100.00
36062;BME280;22123;52.412;20.970;2023-12-07T06:10:44;101145.25;;;-1.99;100.00
36062;BME280;22123;52.412;20.970;2023-12-07T06:13:10;101162.34;;;-1.89;100.00
36062;BME280;22123;52.412;20.970;2023-12-07T06:15:36;101121.25;;;-2.12;100.00
36062;BME280;22123;52.412;20.970;2023-12-07T06:18:02;101137.47;;;-2.02;100.00
36062;BME280;22123;52.412;20.970;2023-12-07T06:20:28;101155.66;;;-1.96;100.00
36062;BME280;22123;52.412;20.970;2023-12-07T06:22:54;101137.56;;;-2.04;100.00
36062;BME280;22123;52.412;20.970;2023-12-07T06:25:20;101143.00;;;-2.07;100.00
36062;BME280;22123;52.412;20.970;2023-12-07T06:27:46;101200.16;;;-1.71;100.00
36062;BME280;22123;52.412;20.970;2023-12-07T06:30:12;101187.66;;;-1.85;100.00
36062;BME280;22123;52.412;20.970;2023-12-07T06:32:38;101214.09;;;-1.67;100.00
36062;BME280;22123;52.412;20.970;2023-12-07T06:35:05;101178.09;;;-1.87;100.00
36062;BME280;22123;52.412;20.970;2023-12-07T06:37:31;101171.34;;;-1.93;100.00
36062;BME280;22123;52.412;20.970;2023-12-07T06:39:57;101212.22;;;-1.65;100.00
36062;BME280;22123;52.412;20.970;2023-12-07T06:42:23;101192.63;;;-1.79;100.00
36062;BME280;22123;52.412;20.970;2023-12-07T06:44:49;101169.63;;;-1.94;100.00
36062;BME280;22123;52.412;20.970;2023-12-07T06:47:15;101189.22;;;-1.81;100.00
36062;BME280;22123;52.412;20.970;2023-12-07T06:49:41;101213.25;;;-1.68;100.00
36062;BME280;22123;52.412;20.970;2023-12-07T06:52:07;101178.81;;;-1.84;100.00
36062;BME280;22123;52.412;20.970;2023-12-07T06:54:34;101216.28;;;-1.58;100.00
36062;BME280;22123;52.412;20.970;2023-12-07T06:57:00;101156.50;;;-1.96;100.00
36062;BME280;22123;52.412;20.970;2023-12-07T06:59:25;101181.22;;;-1.79;100.00
36062;BME280;22123;52.412;20.970;2023-12-07T07:01:51;101166.06;;;-1.93;100.00
36062;BME280;22123;52.412;20.970;2023-12-07T07:04:17;101231.03;;;-1.54;100.00
36062;BME280;22123;52.412;20.970;2023-12-07T07:06:43;101191.00;;;-1.81;100.00
36062;BME280;22123;52.412;20.970;2023-12-07T07:09:09;101190.56;;;-1.72;100.00
36062;BME280;22123;52.412;20.970;2023-12-07T07:11:35;101197.47;;;-1.69;100.00
36062;BME280;22123;52.412;20.970;2023-12-07T07:14:01;101223.03;;;-1.52;100.00
36062;BME280;22123;52.412;20.970;2023-12-07T07:16:27;101192.75;;;-1.63;100.00
36062;BME280;22123;52.412;20.970;2023-12-07T07:18:53;101196.03;;;-1.58;100.00
36062;BME280;22123;52.412;20.970;2023-12-07T07:21:19;101184.06;;;-1.65;100.00
36062;BME280;22123;52.412;20.970;2023-12-07T07:23:45;101180.53;;;-1.65;100.00
36062;BME280;22123;52.412;20.970;2023-12-07T07:26:11;101120.56;;;-1.98;100.00
36062;BME280;22123;52.412;20.970;2023-12-07T07:28:37;101199.19;;;-1.51;100.00
36062;BME280;22123;52.412;20.970;2023-12-07T07:31:03;101195.47;;;-1.47;100.00
36062;BME280;22123;52.412;20.970;2023-12-07T07:33:28;101185.97;;;-1.51;100.00
36062;BME280;22123;52.412;20.970;2023-12-07T07:35:54;101192.50;;;-1.41;100.00
36062;BME280;22123;52.412;20.970;2023-12-07T07:38:20;101188.34;;;-1.45;100.00
36062;BME280;22123;52.412;20.970;2023-12-07T07:40:46;101186.63;;;-1.46;100.00
36062;BME280;22123;52.412;20.970;2023-12-07T07:43:12;101190.50;;;-1.35;100.00
36062;BME280;22123;52.412;20.970;2023-12-07T07:45:38;101208.69;;;-1.29;100.00
36062;BME280;22123;52.412;20.970;2023-12-07T07:48:04;101165.66;;;-1.49;100.00
36062;BME280;22123;52.412;20.970;2023-12-07T07:50:30;101226.31;;;-1.12;100.00
36062;BME280;22123;52.412;20.970;2023-12-07T07:52:56;101217.84;;;-1.19;100.00
36062;BME280;22123;52.412;20.970;2023-12-07T07:55:21;101222.94;;;-1.14;100.00
36062;BME280;22123;52.412;20.970;2023-12-07T07:57:47;101190.97;;;-1.27;100.00
36062;BME280;22123;52.412;20.970;2023-12-07T08:00:14;101221.03;;;-1.12;100.00
36062;BME280;22123;52.412;20.970;2023-12-07T08:02:39;101180.66;;;-1.32;100.00
36062;BME280;22123;52.412;20.970;2023-12-07T08:05:06;101182.34;;;-1.31;100.00
36062;BME280;22123;52.412;20.970;2023-12-07T08:07:32;101225.72;;;-1.00;100.00
36062;BME280;22123;52.412;20.970;2023-12-07T08:09:57;101208.38;;;-1.06;100.00
36062;BME280;22123;52.412;20.970;2023-12-07T08:12:23;101183.75;;;-1.24;100.00
36062;BME280;22123;52.412;20.970;2023-12-07T08:14:49;101203.19;;;-1.07;100.00
36062;BME280;22123;52.412;20.970;2023-12-07T08:17:15;101204.78;;;-1.05;100.00
36062;BME280;22123;52.412;20.970;2023-12-07T08:19:42;101241.91;;;-0.73;100.00
36062;BME280;22123;52.412;20.970;2023-12-07T08:22:08;101208.44;;;-0.90;100.00
36062;BME280;22123;52.412;20.970;2023-12-07T08:24:34;101212.38;;;-0.81;100.00
36062;BME280;22123;52.412;20.970;2023-12-07T08:27:00;101241.19;;;-0.59;100.00
36062;BME280;22123;52.412;20.970;2023-12-07T08:29:26;101247.16;;;-0.55;100.00
36062;BME280;22123;52.412;20.970;2023-12-07T08:31:52;101227.22;;;-0.61;100.00
36062;BME280;22123;52.412;20.970;2023-12-07T08:34:17;101200.56;;;-0.74;100.00
36062;BME280;22123;52.412;20.970;2023-12-07T08:36:43;101181.91;;;-0.88;100.00
36062;BME280;22123;52.412;20.970;2023-12-07T08:39:09;101196.88;;;-0.71;100.00
36062;BME280;22123;52.412;20.970;2023-12-07T08:41:35;101211.47;;;-0.64;100.00
36062;BME280;22123;52.412;20.970;2023-12-07T08:44:01;101197.66;;;-0.69;100.00
36062;BME280;22123;52.412;20.970;2023-12-07T08:46:27;101235.41;;;-0.49;100.00
36062;BME280;22123;52.412;20.970;2023-12-07T08:48:53;101231.75;;;-0.47;100.00
36062;BME280;22123;52.412;20.970;2023-12-07T08:51:19;101231.41;;;-0.41;100.00
36062;BME280;22123;52.412;20.970;2023-12-07T08:53:45;101185.91;;;-0.63;100.00
36062;BME280;22123;52.412;20.970;2023-12-07T08:56:11;101225.81;;;-0.34;100.00
36062;BME280;22123;52.412;20.970;2023-12-07T08:58:37;101200.94;;;-0.48;100.00
36062;BME280;22123;52.412;20.970;2023-12-07T09:01:03;101185.31;;;-0.53;100.00
36062;BME280;22123;52.412;20.970;2023-12-07T09:03:29;101207.19;;;-0.33;100.00
36062;BME280;22123;52.412;20.970;2023-12-07T09:05:55;101216.50;;;-0.26;100.00
36062;BME280;22123;52.412;20.970;2023-12-07T09:08:20;101196.53;;;-0.31;100.00
36062;BME280;22123;52.412;20.970;2023-12-07T09:10:46;101192.00;;;-0.29;100.00
36062;BME280;22123;52.412;20.970;2023-12-07T09:13:12;101213.09;;;-0.12;100.00
36062;BME280;22123;52.412;20.970;2023-12-07T09:15:38;101231.72;;;0.03;100.00
36062;BME280;22123;52.412;20.970;2023-12-07T09:18:04;101240.69;;;0.16;100.00
36062;BME280;22123;52.412;20.970;2023-12-07T09:20:30;101216.63;;;0.05;100.00
36062;BME280;22123;52.412;20.970;2023-12-07T09:22:56;101223.44;;;0.09;100.00
36062;BME280;22123;52.412;20.970;2023-12-07T09:25:22;101237.25;;;0.14;100.00
36062;BME280;22123;52.412;20.970;2023-12-07T09:27:47;101237.34;;;0.12;100.00
36062;BME280;22123;52.412;20.970;2023-12-07T09:30:13;101216.63;;;0.05;100.00
36062;BME280;22123;52.412;20.970;2023-12-07T09:32:40;101254.88;;;0.31;100.00
36062;BME280;22123;52.412;20.970;2023-12-07T09:35:07;101227.47;;;0.16;100.00
36062;BME280;22123;52.412;20.970;2023-12-07T09:37:34;101200.28;;;-0.04;100.00
36062;BME280;22123;52.412;20.970;2023-12-07T09:40:00;101183.88;;;-0.10;100.00
36062;BME280;22123;52.412;20.970;2023-12-07T09:42:26;101252.78;;;0.36;100.00
36062;BME280;22123;52.412;20.970;2023-12-07T09:44:53;101199.44;;;0.12;100.00
36062;BME280;22123;52.412;20.970;2023-12-07T09:47:19;101228.38;;;0.31;100.00
36062;BME280;22123;52.412;20.970;2023-12-07T09:49:46;101193.19;;;0.13;100.00
36062;BME280;22123;52.412;20.970;2023-12-07T09:52:13;101214.44;;;0.27;100.00
36062;BME280;22123;52.412;20.970;2023-12-07T09:54:42;101241.34;;;0.36;100.00
36062;BME280;22123;52.412;20.970;2023-12-07T09:57:09;101225.13;;;0.26;100.00
36062;BME280;22123;52.412;20.970;2023-12-07T09:59:35;101255.03;;;0.44;100.00
36062;BME280;22123;52.412;20.970;2023-12-07T10:02:01;101226.09;;;0.25;100.00
36062;BME280;22123;52.412;20.970;2023-12-07T10:04:27;101230.78;;;0.20;100.00
36062;BME280;22123;52.412;20.970;2023-12-07T10:06:53;101216.06;;;0.14;100.00
36062;BME280;22123;52.412;20.970;2023-12-07T10:09:19;101265.19;;;0.36;100.00
36062;BME280;22123;52.412;20.970;2023-12-07T10:11:45;101258.97;;;0.37;100.00
36062;BME280;22123;52.412;20.970;2023-12-07T10:14:11;101217.72;;;0.16;100.00
36062;BME280;22123;52.412;20.970;2023-12-07T10:16:37;101223.50;;;0.23;100.00
36062;BME280;22123;52.412;20.970;2023-12-07T10:19:29;101258.06;;;0.52;100.00
36062;BME280;22123;52.412;20.970;2023-12-07T10:21:55;101263.38;;;0.52;100.00
36062;BME280;22123;52.412;20.970;2023-12-07T10:24:21;101261.59;;;0.52;100.00
36062;BME280;22123;52.412;20.970;2023-12-07T10:26:48;101221.44;;;0.28;100.00
36062;BME280;22123;52.412;20.970;2023-12-07T10:29:14;101263.47;;;0.50;100.00
36062;BME280;22123;52.412;20.970;2023-12-07T10:31:42;101265.25;;;0.50;100.00
36062;BME280;22123;52.412;20.970;2023-12-07T10:34:08;101214.88;;;0.20;100.00
36062;BME280;22123;52.412;20.970;2023-12-07T10:36:34;101203.28;;;0.22;100.00
36062;BME280;22123;52.412;20.970;2023-12-07T10:39:00;101201.56;;;0.21;100.00
36062;BME280;22123;52.412;20.970;2023-12-07T10:41:26;101192.94;;;0.17;100.00
36062;BME280;22123;52.412;20.970;2023-12-07T10:43:53;101260.47;;;0.57;100.00
36062;BME280;22123;52.412;20.970;2023-12-07T10:46:21;101233.84;;;0.44;100.00
36062;BME280;22123;52.412;20.970;2023-12-07T10:49:01;101218.53;;;0.33;100.00
36062;BME280;22123;52.412;20.970;2023-12-07T10:51:41;101248.91;;;0.58;100.00
36062;BME280;22123;52.412;20.970;2023-12-07T10:54:07;101223.56;;;0.38;100.00
36062;BME280;22123;52.412;20.970;2023-12-07T10:56:43;101223.41;;;0.41;100.00
36062;BME280;22123;52.412;20.970;2023-12-07T10:59:10;101254.91;;;0.61;100.00
36062;BME280;22123;52.412;20.970;2023-12-07T11:01:40;101212.13;;;0.37;100.00
36062;BME280;22123;52.412;20.970;2023-12-07T11:04:06;101233.38;;;0.51;100.00
36062;BME280;22123;52.412;20.970;2023-12-07T11:06:33;101237.28;;;0.60;100.00
36062;BME280;22123;52.412;20.970;2023-12-07T11:09:02;101245.28;;;0.75;100.00
36062;BME280;22123;52.412;20.970;2023-12-07T11:11:41;101243.34;;;0.78;100.00
36062;BME280;22123;52.412;20.970;2023-12-07T11:14:09;101235.53;;;0.75;100.00
36062;BME280;22123;52.412;20.970;2023-12-07T11:16:37;101244.69;;;0.85;100.00
36062;BME280;22123;52.412;20.970;2023-12-07T11:19:04;101186.19;;;0.58;100.00
36062;BME280;22123;52.412;20.970;2023-12-07T11:21:30;101234.56;;;0.92;100.00
36062;BME280;22123;52.412;20.970;2023-12-07T11:23:59;101227.91;;;0.85;100.00
36062;BME280;22123;52.412;20.970;2023-12-07T11:26:26;101237.88;;;0.96;100.00
36062;BME280;22123;52.412;20.970;2023-12-07T11:28:52;101196.25;;;0.67;100.00
36062;BME280;22123;52.412;20.970;2023-12-07T11:31:21;101235.41;;;0.93;100.00
36062;BME280;22123;52.412;20.970;2023-12-07T11:33:47;101234.47;;;0.94;100.00
36062;BME280;22123;52.412;20.970;2023-12-07T11:36:13;101182.50;;;0.61;100.00
36062;BME280;22123;52.412;20.970;2023-12-07T11:39:20;101245.84;;;0.96;100.00
36062;BME280;22123;52.412;20.970;2023-12-07T11:41:45;101257.09;;;0.99;100.00
36062;BME280;22123;52.412;20.970;2023-12-07T11:44:17;101235.50;;;0.91;100.00
36062;BME280;22123;52.412;20.970;2023-12-07T11:46:43;101195.22;;;0.70;100.00
36062;BME280;22123;52.412;20.970;2023-12-07T11:49:09;101208.28;;;0.73;100.00
36062;BME280;22123;52.412;20.970;2023-12-07T11:51:35;101228.09;;;0.82;100.00
36062;BME280;22123;52.412;20.970;2023-12-07T11:54:01;101195.16;;;0.56;100.00
36062;BME280;22123;52.412;20.970;2023-12-07T11:56:27;101175.22;;;0.34;100.00
36062;BME280;22123;52.412;20.970;2023-12-07T11:58:53;101209.53;;;0.51;100.00
36062;BME280;22123;52.412;20.970;2023-12-07T12:01:19;101205.44;;;0.46;100.00
36062;BME280;22123;52.412;20.970;2023-12-07T12:03:45;101238.31;;;0.58;100.00
36062;BME280;22123;52.412;20.970;2023-12-07T12:06:11;101255.84;;;0.60;100.00
36062;BME280;22123;52.412;20.970;2023-12-07T12:08:38;101205.28;;;0.33;100.00
36062;BME280;22123;52.412;20.970;2023-12-07T12:11:04;101202.63;;;0.33;100.00
36062;BME280;22123;52.412;20.970;2023-12-07T12:13:34;101239.38;;;0.55;100.00
36062;BME280;22123;52.412;20.970;2023-12-07T12:16:00;101214.34;;;0.29;100.00
36062;BME280;22123;52.412;20.970;2023-12-07T12:18:27;101221.38;;;0.30;100.00
36062;BME280;22123;52.412;20.970;2023-12-07T12:20:53;101194.38;;;0.07;100.00
36062;BME280;22123;52.412;20.970;2023-12-07T12:23:20;101250.56;;;0.44;100.00
36062;BME280;22123;52.412;20.970;2023-12-07T12:25:46;101201.91;;;0.15;100.00
36062;BME280;22123;52.412;20.970;2023-12-07T12:28:15;101218.06;;;0.26;100.00
36062;BME280;22123;52.412;20.970;2023-12-07T12:30:41;101199.09;;;0.18;100.00
36062;BME280;22123;52.412;20.970;2023-12-07T12:33:07;101222.75;;;0.21;100.00